Time;durP1;ratioP1;P1;durP2;ratioP2;P2;SDS_P1;SDS_P2;PMS_P1;PMS_P2;Temp;Humidity;BMP_temperature;BMP_pressure;BME280_temperature;BME280_humidity;BME280_pressure;Samples;Min_cycle;Max_cycle;Signal;HPM_P1;HPM_P2
2023/09/06 00:01:59;;;;;;;1.60;1.00;;;18.70;99.80;;;;;;4192261;28;20079;-58
2023/09/06 00:04:19;;;;;;;1.35;1.20;;;18.80;99.80;;;;;;4193635;28;20104;-57
2023/09/06 00:06:40;;;;;;;4.18;1.30;;;18.70;99.90;;;;;;4194820;28;20040;-57
2023/09/06 00:09:00;;;;;;;1.25;1.23;;;18.80;99.80;;;;;;4191984;28;20154;-57
2023/09/06 00:11:20;;;;;;;2.00;1.20;;;18.70;99.90;;;;;;4194794;28;20094;-57
2023/09/06 00:13:40;;;;;;;4.38;1.77;;;18.70;99.90;;;;;;4193793;28;20055;-57
2023/09/06 00:16:02;;;;;;;1.20;1.20;;;18.60;99.90;;;;;;4193151;28;20112;-58
2023/09/06 00:18:22;;;;;;;2.45;1.65;;;18.60;99.90;;;;;;4192186;28;20051;-58
2023/09/06 00:20:44;;;;;;;1.77;1.20;;;18.60;99.90;;;;;;4192392;28;20056;-57
2023/09/06 00:23:07;;;;;;;0.95;0.95;;;18.50;99.90;;;;;;4190756;28;20103;-57
2023/09/06 00:25:28;;;;;;;1.13;1.10;;;18.60;99.90;;;;;;4190916;28;20047;-58
2023/09/06 00:27:50;;;;;;;2.15;1.20;;;18.80;99.70;;;;;;4191315;28;20039;-58
2023/09/06 00:30:10;;;;;;;1.23;1.08;;;18.80;99.50;;;;;;4196243;28;20087;-57
2023/09/06 00:32:30;;;;;;;1.10;1.10;;;18.80;99.50;;;;;;4192858;28;20052;-57
2023/09/06 00:34:50;;;;;;;1.20;1.10;;;18.80;99.60;;;;;;4192149;28;20235;-57
2023/09/06 00:37:10;;;;;;;1.90;1.00;;;18.90;99.50;;;;;;4192874;28;20052;-58
2023/09/06 00:39:31;;;;;;;0.98;0.90;;;18.90;99.30;;;;;;4192642;28;20055;-57
2023/09/06 00:41:51;;;;;;;1.13;1.10;;;19.00;99.20;;;;;;4191994;28;20083;-57
2023/09/06 00:44:11;;;;;;;1.00;1.00;;;19.00;99.20;;;;;;4191631;28;20390;-57
2023/09/06 00:46:34;;;;;;;2.92;1.10;;;19.00;99.20;;;;;;4190820;28;20228;-57
2023/09/06 00:48:55;;;;;;;1.00;1.00;;;18.90;99.30;;;;;;4190300;28;20123;-57
2023/09/06 00:51:15;;;;;;;1.00;1.00;;;18.90;99.40;;;;;;4188788;28;20103;-57
2023/09/06 00:53:35;;;;;;;1.02;1.02;;;18.80;99.40;;;;;;4187798;28;20237;-57
2023/09/06 00:55:58;;;;;;;1.40;0.90;;;18.90;99.50;;;;;;4190804;28;20059;-58
2023/09/06 00:58:19;;;;;;;1.42;0.90;;;18.80;99.50;;;;;;4190399;28;20052;-57
2023/09/06 01:00:39;;;;;;;4.85;1.33;;;18.70;99.70;;;;;;4190763;28;20059;-57
2023/09/06 01:02:59;;;;;;;1.23;0.95;;;18.70;99.80;;;;;;4191241;28;20091;-57
2023/09/06 01:05:20;;;;;;;3.33;1.40;;;18.70;99.90;;;;;;4191210;28;20056;-57
2023/09/06 01:07:44;;;;;;;1.95;1.00;;;18.70;99.90;;;;;;4190784;28;20036;-57
2023/09/06 01:10:04;;;;;;;3.35;1.42;;;18.70;99.90;;;;;;4189999;28;20056;-57
2023/09/06 01:12:24;;;;;;;1.10;1.00;;;18.70;99.90;;;;;;4191434;28;20044;-57
2023/09/06 01:14:44;;;;;;;1.10;1.10;;;18.60;99.90;;;;;;4190407;28;20055;-57
2023/09/06 01:17:05;;;;;;;1.30;1.00;;;18.70;99.90;;;;;;4189250;28;20040;-57
2023/09/06 01:19:27;;;;;;;1.63;1.13;;;18.60;99.90;;;;;;4191194;28;20116;-57
2023/09/06 01:21:58;;;;;;;4.68;1.27;;;18.60;99.90;;;;;;4190555;28;20280;-57
2023/09/06 01:24:19;;;;;;;4.78;1.40;;;18.50;99.90;;;;;;4189338;28;20043;-57
2023/09/06 01:26:39;;;;;;;1.38;1.27;;;18.50;99.90;;;;;;4191993;28;20060;-57
2023/09/06 01:28:59;;;;;;;0.90;0.90;;;18.40;99.90;;;;;;4192226;28;20086;-58
2023/09/06 01:31:19;;;;;;;1.00;1.00;;;18.40;99.90;;;;;;4192605;28;20051;-58
2023/09/06 01:33:39;;;;;;;0.95;0.95;;;18.40;99.90;;;;;;4191964;28;20281;-57
2023/09/06 01:35:59;;;;;;;1.23;1.20;;;18.40;99.90;;;;;;4191819;28;20056;-58
2023/09/06 01:38:19;;;;;;;1.27;1.10;;;18.40;99.90;;;;;;4190928;28;20422;-57
2023/09/06 01:40:39;;;;;;;1.20;1.20;;;18.30;99.90;;;;;;4189654;28;20048;-57
2023/09/06 01:42:59;;;;;;;0.98;0.98;;;18.10;99.90;;;;;;4190268;28;20115;-57
2023/09/06 01:45:19;;;;;;;1.08;0.90;;;18.00;99.90;;;;;;4191830;28;20266;-58
2023/09/06 01:47:39;;;;;;;1.60;1.00;;;18.00;99.90;;;;;;4189729;28;20044;-58
2023/09/06 01:49:59;;;;;;;1.00;1.00;;;18.10;99.90;;;;;;4189241;28;20112;-58
2023/09/06 01:52:20;;;;;;;1.00;1.00;;;18.20;99.90;;;;;;4188584;28;20044;-58
2023/09/06 01:54:40;;;;;;;1.55;1.00;;;18.30;99.90;;;;;;4192445;28;20338;-58
2023/09/06 01:57:00;;;;;;;1.10;1.10;;;18.40;99.90;;;;;;4192171;28;20079;-58
2023/09/06 01:59:20;;;;;;;1.48;1.35;;;18.40;99.80;;;;;;4191098;28;20052;-57
2023/09/06 02:01:40;;;;;;;2.45;1.10;;;18.40;99.90;;;;;;4190198;28;20386;-58
2023/09/06 02:04:02;;;;;;;1.00;1.00;;;18.40;99.90;;;;;;4190185;28;20151;-57
2023/09/06 02:06:23;;;;;;;1.73;1.23;;;18.30;99.90;;;;;;4189425;28;20086;-58
2023/09/06 02:08:43;;;;;;;1.13;1.13;;;18.40;99.90;;;;;;4192362;28;20112;-58
2023/09/06 02:11:02;;;;;;;1.27;1.17;;;18.40;99.90;;;;;;4190490;28;20044;-57
2023/09/06 02:13:23;;;;;;;1.30;1.10;;;18.40;99.90;;;;;;4191044;28;20048;-58
2023/09/06 02:15:43;;;;;;;1.15;1.15;;;18.40;99.90;;;;;;4190410;28;20144;-58
2023/09/06 02:18:04;;;;;;;1.20;1.10;;;18.40;99.90;;;;;;4190201;28;20056;-57
2023/09/06 02:20:25;;;;;;;1.45;1.40;;;18.40;99.70;;;;;;4189146;28;20067;-58
2023/09/06 02:22:55;;;;;;;1.20;1.10;;;18.40;99.70;;;;;;4188022;28;20059;-58
2023/09/06 02:25:16;;;;;;;2.15;1.05;;;18.40;99.70;;;;;;4188614;28;20078;-58
2023/09/06 02:27:37;;;;;;;2.58;1.10;;;18.40;99.80;;;;;;4189396;28;20248;-58
2023/09/06 02:29:57;;;;;;;1.05;1.05;;;18.40;99.70;;;;;;4187113;28;20064;-57
2023/09/06 02:32:17;;;;;;;1.30;1.08;;;18.40;99.80;;;;;;4189449;28;20059;-58
2023/09/06 02:34:37;;;;;;;1.10;1.00;;;18.30;99.70;;;;;;4188649;28;20093;-57
2023/09/06 02:36:57;;;;;;;1.00;1.00;;;18.30;99.90;;;;;;4190581;28;20240;-57
2023/09/06 02:39:18;;;;;;;1.20;1.10;;;18.20;99.90;;;;;;4190086;28;20251;-57
2023/09/06 02:41:37;;;;;;;3.58;1.20;;;18.10;99.90;;;;;;4190825;28;20040;-57
2023/09/06 02:43:58;;;;;;;1.23;1.08;;;18.00;99.90;;;;;;4190466;28;20136;-57
2023/09/06 02:46:18;;;;;;;1.10;1.10;;;17.90;99.90;;;;;;4189791;28;20079;-57
2023/09/06 02:48:38;;;;;;;1.42;1.42;;;17.70;99.90;;;;;;4189627;28;20115;-57
2023/09/06 02:50:59;;;;;;;1.08;1.08;;;17.60;99.90;;;;;;4188925;28;20052;-57
2023/09/06 02:53:19;;;;;;;1.23;1.20;;;17.50;99.90;;;;;;4187309;28;20071;-58
2023/09/06 02:55:39;;;;;;;1.20;1.20;;;17.30;99.90;;;;;;4189759;28;20135;-57
2023/09/06 02:57:59;;;;;;;3.05;1.00;;;17.20;99.90;;;;;;4188593;28;20087;-58
2023/09/06 03:00:26;;;;;;;1.30;1.30;;;17.00;99.90;;;;;;4190931;28;20083;-57
2023/09/06 03:02:47;;;;;;;1.05;1.05;;;16.80;99.90;;;;;;4191931;28;20370;-57
2023/09/06 03:05:09;;;;;;;1.73;1.63;;;16.60;99.90;;;;;;4190004;28;20056;-57
2023/09/06 03:07:31;;;;;;;1.40;1.40;;;16.60;99.90;;;;;;4193388;28;20271;-57
2023/09/06 03:09:51;;;;;;;1.50;1.50;;;16.40;99.90;;;;;;4194377;28;20048;-57
2023/09/06 03:12:14;;;;;;;1.40;1.15;;;16.40;99.90;;;;;;4194706;28;20043;-57
2023/09/06 03:14:36;;;;;;;1.38;1.35;;;16.40;99.90;;;;;;4192733;28;20115;-57
2023/09/06 03:16:57;;;;;;;4.05;1.58;;;16.40;99.90;;;;;;4191310;28;20257;-57
2023/09/06 03:19:17;;;;;;;2.45;2.13;;;16.40;99.90;;;;;;4191285;28;20116;-57
2023/09/06 03:21:37;;;;;;;1.20;1.20;;;16.40;99.90;;;;;;4192258;28;20083;-57
2023/09/06 03:23:59;;;;;;;1.75;1.65;;;16.40;99.90;;;;;;4190126;28;20079;-57
2023/09/06 03:26:22;;;;;;;1.30;1.30;;;16.40;99.90;;;;;;4192661;28;20229;-57
2023/09/06 03:28:43;;;;;;;1.35;1.35;;;16.40;99.90;;;;;;4189804;28;20139;-57
2023/09/06 03:31:03;;;;;;;1.45;1.35;;;16.20;99.90;;;;;;4196146;28;20240;-57
2023/09/06 03:33:24;;;;;;;3.45;1.40;;;16.20;99.90;;;;;;4194591;28;20146;-57
2023/09/06 03:35:48;;;;;;;1.10;1.10;;;16.20;99.90;;;;;;4192880;28;20095;-57
2023/09/06 03:38:08;;;;;;;1.35;1.20;;;16.20;99.90;;;;;;4191759;28;20099;-57
2023/09/06 03:40:35;;;;;;;1.23;1.23;;;16.20;99.90;;;;;;4192631;28;20044;-57
2023/09/06 03:42:55;;;;;;;1.95;1.95;;;16.20;99.90;;;;;;4190991;28;20079;-57
2023/09/06 03:45:21;;;;;;;3.15;1.70;;;16.00;99.90;;;;;;4190956;28;20236;-57
2023/09/06 03:47:42;;;;;;;1.23;1.20;;;15.90;99.90;;;;;;4188654;28;20320;-57
2023/09/06 03:50:04;;;;;;;1.85;1.63;;;15.90;99.90;;;;;;4188067;28;20109;-57
2023/09/06 03:52:26;;;;;;;1.45;1.40;;;15.80;99.90;;;;;;4191159;28;20101;-57
2023/09/06 03:54:46;;;;;;;1.80;1.13;;;15.90;99.90;;;;;;4190890;28;20263;-56
2023/09/06 03:57:12;;;;;;;1.45;1.40;;;15.80;99.90;;;;;;4190123;28;20048;-57
2023/09/06 03:59:35;;;;;;;3.15;1.50;;;15.90;99.90;;;;;;4191803;28;20035;-57
2023/09/06 04:01:55;;;;;;;1.65;1.65;;;16.00;99.90;;;;;;4190415;28;20244;-57
2023/09/06 04:04:15;;;;;;;3.58;1.20;;;16.10;99.90;;;;;;4191461;28;20091;-57
2023/09/06 04:06:35;;;;;;;1.38;1.25;;;16.30;99.90;;;;;;4190363;28;20075;-57
2023/09/06 04:08:55;;;;;;;1.42;1.42;;;16.20;99.90;;;;;;4192465;28;20048;-57
2023/09/06 04:11:16;;;;;;;1.40;1.25;;;16.20;99.90;;;;;;4191232;28;20079;-57
2023/09/06 04:13:36;;;;;;;1.48;1.20;;;16.00;99.90;;;;;;4190107;28;20066;-57
2023/09/06 04:15:56;;;;;;;1.42;1.42;;;16.00;99.90;;;;;;4191002;28;20040;-57
2023/09/06 04:18:18;;;;;;;5.75;1.75;;;15.90;99.90;;;;;;4191240;28;20303;-57
2023/09/06 04:20:44;;;;;;;1.10;1.10;;;15.70;99.90;;;;;;4193442;28;20051;-57
2023/09/06 04:23:06;;;;;;;1.50;1.40;;;15.70;99.90;;;;;;4192732;28;20051;-57
2023/09/06 04:25:27;;;;;;;1.70;1.70;;;15.70;99.90;;;;;;4191877;28;20114;-57
2023/09/06 04:27:47;;;;;;;1.88;1.65;;;15.70;99.90;;;;;;4193147;28;20290;-57
2023/09/06 04:30:08;;;;;;;2.33;2.03;;;15.70;99.90;;;;;;4191612;28;20366;-57
2023/09/06 04:32:28;;;;;;;1.95;1.20;;;15.60;99.90;;;;;;4193010;28;20052;-57
2023/09/06 04:34:48;;;;;;;2.00;1.88;;;15.60;99.90;;;;;;4190801;28;20091;-57
2023/09/06 04:37:12;;;;;;;3.08;2.13;;;15.50;99.90;;;;;;4190022;28;20056;-57
2023/09/06 04:39:33;;;;;;;1.58;1.48;;;15.50;99.90;;;;;;4190323;28;20420;-57
2023/09/06 04:41:53;;;;;;;1.67;1.60;;;15.50;99.90;;;;;;4191568;28;20100;-57
2023/09/06 04:44:12;;;;;;;1.77;1.77;;;15.60;99.90;;;;;;4189785;28;20092;-57
2023/09/06 04:46:33;;;;;;;1.58;1.52;;;16.10;99.90;;;;;;4190781;28;20542;-57
2023/09/06 04:48:55;;;;;;;2.30;1.40;;;16.10;99.90;;;;;;4190827;28;20083;-57
2023/09/06 04:51:15;;;;;;;1.60;1.50;;;16.10;99.90;;;;;;4194688;28;20236;-57
2023/09/06 04:53:34;;;;;;;1.75;1.73;;;16.00;99.90;;;;;;4191947;28;20474;-57
2023/09/06 04:55:55;;;;;;;2.00;1.90;;;15.90;99.90;;;;;;4193408;28;20367;-57
2023/09/06 04:58:15;;;;;;;2.25;2.15;;;16.00;99.90;;;;;;4191192;28;20056;-57
2023/09/06 05:00:38;;;;;;;1.55;1.45;;;16.50;99.90;;;;;;4190599;28;20055;-56
2023/09/06 05:03:00;;;;;;;1.73;1.63;;;16.80;99.90;;;;;;4190238;28;20109;-57
2023/09/06 05:05:21;;;;;;;1.63;1.52;;;16.90;99.90;;;;;;4190059;28;20090;-58
2023/09/06 05:07:41;;;;;;;5.75;1.60;;;17.00;99.90;;;;;;4190856;28;20363;-57
2023/09/06 05:10:03;;;;;;;1.50;1.50;;;16.90;99.90;;;;;;4191874;28;20048;-57
2023/09/06 05:12:23;;;;;;;1.85;1.60;;;16.70;99.90;;;;;;4190162;28;20436;-58
2023/09/06 05:14:43;;;;;;;1.67;1.58;;;16.50;99.90;;;;;;4189901;28;20371;-57
2023/09/06 05:17:03;;;;;;;1.90;1.80;;;16.40;99.90;;;;;;4190848;28;20075;-57
2023/09/06 05:19:27;;;;;;;2.50;2.40;;;16.20;99.90;;;;;;4190293;28;20048;-57
2023/09/06 05:21:47;;;;;;;2.33;2.17;;;16.10;99.90;;;;;;4189417;28;20052;-58
2023/09/06 05:24:07;;;;;;;1.92;1.80;;;16.10;99.90;;;;;;4190118;28;20243;-58
2023/09/06 05:26:28;;;;;;;1.48;1.40;;;16.10;99.90;;;;;;4190355;28;20043;-58
2023/09/06 05:28:48;;;;;;;1.35;1.35;;;16.00;99.90;;;;;;4189597;28;20099;-58
2023/09/06 05:31:09;;;;;;;1.70;1.60;;;16.00;99.90;;;;;;4188058;28;20040;-58
2023/09/06 05:33:28;;;;;;;2.55;1.35;;;16.10;99.90;;;;;;4191014;28;20343;-58
2023/09/06 05:35:48;;;;;;;1.60;1.50;;;15.90;99.90;;;;;;4191006;28;20083;-58
2023/09/06 05:38:13;;;;;;;1.48;1.38;;;15.90;99.90;;;;;;4189851;28;20051;-58
2023/09/06 05:40:34;;;;;;;2.75;1.70;;;15.90;99.90;;;;;;4199373;28;20235;-58
2023/09/06 05:42:54;;;;;;;1.50;1.50;;;15.90;99.90;;;;;;4188480;28;20362;-58
2023/09/06 05:45:13;;;;;;;2.20;2.10;;;15.90;99.90;;;;;;4190767;28;20240;-58
2023/09/06 05:47:35;;;;;;;1.55;1.55;;;15.90;99.90;;;;;;4191037;28;20040;-58
2023/09/06 05:49:56;;;;;;;4.25;2.05;;;16.10;99.90;;;;;;4189274;28;20367;-57
2023/09/06 05:52:16;;;;;;;1.60;1.50;;;16.50;99.90;;;;;;4190949;28;20071;-58
2023/09/06 05:54:35;;;;;;;2.47;1.90;;;16.60;99.90;;;;;;4190186;28;20047;-57
2023/09/06 05:56:55;;;;;;;3.42;2.13;;;16.60;99.90;;;;;;4188355;28;20358;-58
2023/09/06 05:59:16;;;;;;;4.97;2.50;;;16.60;99.90;;;;;;4192194;28;20075;-58
2023/09/06 06:01:36;;;;;;;2.97;1.70;;;16.50;99.90;;;;;;4190220;28;20176;-58
2023/09/06 06:03:56;;;;;;;1.63;1.58;;;16.40;99.90;;;;;;4191740;28;20370;-58
2023/09/06 06:06:18;;;;;;;1.70;1.65;;;16.40;99.90;;;;;;4190170;28;20067;-58
2023/09/06 06:08:38;;;;;;;1.48;1.38;;;16.40;99.90;;;;;;4189527;28;20048;-58
2023/09/06 06:10:58;;;;;;;2.00;1.88;;;16.70;99.90;;;;;;4189645;28;20382;-58
2023/09/06 06:13:18;;;;;;;3.65;1.48;;;16.80;99.90;;;;;;4188936;28;20052;-58
2023/09/06 06:15:38;;;;;;;1.33;1.30;;;16.80;99.90;;;;;;4191206;28;20059;-58
2023/09/06 06:17:58;;;;;;;1.50;1.40;;;17.10;99.90;;;;;;4190589;28;20105;-58
2023/09/06 06:20:19;;;;;;;5.82;1.48;;;17.40;99.90;;;;;;4189905;28;20052;-58
2023/09/06 06:22:50;;;;;;;5.10;1.50;;;17.50;99.90;;;;;;4188402;28;20055;-58
2023/09/06 06:25:10;;;;;;;1.27;1.13;;;17.60;99.90;;;;;;4189220;28;20087;-58
2023/09/06 06:27:30;;;;;;;1.33;1.23;;;17.80;99.90;;;;;;4192996;28;20145;-58
2023/09/06 06:29:50;;;;;;;1.40;1.25;;;17.90;99.90;;;;;;4190868;28;20083;-58
2023/09/06 06:32:10;;;;;;;1.80;1.20;;;18.10;99.90;;;;;;4190412;28;20043;-58
2023/09/06 06:34:30;;;;;;;1.10;1.10;;;18.30;99.90;;;;;;4190661;28;20094;-58
2023/09/06 06:36:50;;;;;;;2.78;1.20;;;18.60;99.90;;;;;;4190019;28;20101;-58
2023/09/06 06:39:12;;;;;;;4.07;1.20;;;18.80;99.90;;;;;;4189513;28;20095;-58
2023/09/06 06:41:31;;;;;;;1.05;1.00;;;19.00;99.90;;;;;;4192073;28;20048;-58
2023/09/06 06:43:55;;;;;;;1.08;0.98;;;19.20;99.90;;;;;;4191500;28;20248;-58
2023/09/06 06:46:26;;;;;;;1.10;1.10;;;19.40;99.90;;;;;;4192224;28;20040;-58
2023/09/06 06:48:46;;;;;;;1.55;1.55;;;19.50;99.90;;;;;;4191677;28;20038;-58
2023/09/06 06:51:07;;;;;;;1.20;1.10;;;19.60;99.90;;;;;;4190227;28;20068;-58
2023/09/06 06:53:28;;;;;;;1.20;1.20;;;19.70;99.90;;;;;;4192065;28;20309;-58
2023/09/06 06:55:48;;;;;;;1.17;1.17;;;19.80;99.90;;;;;;4191880;28;20290;-58
2023/09/06 06:58:08;;;;;;;1.60;1.02;;;19.90;99.90;;;;;;4192342;28;20056;-58
2023/09/06 07:00:31;;;;;;;1.10;1.00;;;20.00;99.90;;;;;;4191708;28;20051;-57
2023/09/06 07:02:54;;;;;;;1.08;0.90;;;20.00;99.90;;;;;;4192533;28;20040;-58
2023/09/06 07:05:14;;;;;;;1.00;1.00;;;20.10;99.90;;;;;;4192166;28;20371;-58
2023/09/06 07:07:34;;;;;;;0.90;0.90;;;20.30;99.90;;;;;;4190647;28;20091;-58
2023/09/06 07:09:54;;;;;;;1.13;1.02;;;20.40;99.90;;;;;;4189003;28;20051;-58
2023/09/06 07:12:14;;;;;;;3.22;1.00;;;20.50;99.90;;;;;;4191815;28;20035;-59
2023/09/06 07:14:33;;;;;;;1.33;1.00;;;20.60;99.90;;;;;;4191992;28;20060;-58
2023/09/06 07:16:54;;;;;;;1.25;0.82;;;20.70;99.90;;;;;;4192473;28;20390;-58
2023/09/06 07:19:14;;;;;;;1.08;0.90;;;20.60;99.90;;;;;;4191946;28;20094;-59
2023/09/06 07:21:34;;;;;;;0.80;0.80;;;20.60;99.90;;;;;;4193831;28;20074;-58
2023/09/06 07:23:54;;;;;;;1.10;1.10;;;20.80;99.90;;;;;;4194229;28;20087;-59
2023/09/06 07:26:15;;;;;;;1.00;0.90;;;21.00;99.90;;;;;;4193205;28;20056;-58
2023/09/06 07:28:40;;;;;;;0.90;0.90;;;21.20;99.90;;;;;;4192624;28;20052;-58
2023/09/06 07:31:00;;;;;;;1.58;0.90;;;21.10;99.80;;;;;;4193328;28;20098;-58
2023/09/06 07:33:20;;;;;;;0.90;0.90;;;21.00;99.40;;;;;;4191222;28;20063;-58
2023/09/06 07:35:42;;;;;;;0.95;0.95;;;21.20;99.90;;;;;;4192572;28;20055;-58
2023/09/06 07:38:01;;;;;;;1.10;1.10;;;21.20;99.30;;;;;;4191330;28;20244;-58
2023/09/06 07:40:21;;;;;;;1.77;0.93;;;21.10;99.00;;;;;;4197718;28;20236;-58
2023/09/06 07:42:41;;;;;;;5.10;1.38;;;21.20;98.90;;;;;;4193782;28;20044;-58
2023/09/06 07:45:01;;;;;;;1.50;0.90;;;21.50;99.50;;;;;;4192060;28;20049;-58
2023/09/06 07:47:21;;;;;;;0.80;0.80;;;21.70;99.20;;;;;;4195662;28;20151;-58
2023/09/06 07:49:42;;;;;;;1.67;1.08;;;21.90;99.40;;;;;;4191979;28;20072;-58
2023/09/06 07:52:04;;;;;;;1.35;0.90;;;22.00;98.60;;;;;;4193304;28;20048;-58
2023/09/06 07:54:24;;;;;;;0.80;0.80;;;22.10;99.70;;;;;;4192855;28;20039;-59
2023/09/06 07:56:47;;;;;;;0.93;0.82;;;22.20;97.60;;;;;;4192277;28;20056;-59
2023/09/06 07:59:10;;;;;;;1.60;0.80;;;21.90;97.10;;;;;;4192602;28;20072;-58
2023/09/06 08:01:31;;;;;;;1.42;0.90;;;21.90;97.40;;;;;;4190689;28;20121;-58
2023/09/06 08:03:52;;;;;;;1.27;0.80;;;21.90;97.30;;;;;;4189525;28;20122;-58
2023/09/06 08:06:12;;;;;;;0.90;0.90;;;21.80;97.20;;;;;;4191261;28;20131;-58
2023/09/06 08:08:32;;;;;;;1.30;0.90;;;21.90;97.70;;;;;;4190757;28;20059;-58
2023/09/06 08:10:51;;;;;;;1.63;0.80;;;22.00;97.30;;;;;;4194665;28;20390;-58
2023/09/06 08:13:11;;;;;;;1.40;0.80;;;22.00;97.20;;;;;;4191917;28;20064;-58
2023/09/06 08:15:32;;;;;;;0.80;0.80;;;22.10;96.70;;;;;;4192683;28;20064;-58
2023/09/06 08:17:52;;;;;;;0.80;0.80;;;22.00;96.50;;;;;;4193796;28;20079;-59
2023/09/06 08:20:14;;;;;;;1.15;0.80;;;22.00;96.60;;;;;;4190441;28;20067;-58
2023/09/06 08:22:35;;;;;;;;;;;22.20;96.50;;;;;;4191179;28;20393;-58
2023/09/06 08:25:04;;;;;;;0.88;0.88;;;22.50;96.60;;;;;;4190895;28;19963;-58
2023/09/06 08:27:24;;;;;;;0.95;0.80;;;22.90;96.10;;;;;;4191184;28;20075;-58
2023/09/06 08:29:44;;;;;;;0.80;0.80;;;22.90;95.90;;;;;;4190413;28;20156;-58
2023/09/06 08:32:05;;;;;;;0.80;0.80;;;22.80;95.90;;;;;;4188737;28;20067;-58
2023/09/06 08:34:25;;;;;;;0.80;0.80;;;23.10;96.10;;;;;;4190921;28;20048;-58
2023/09/06 08:36:45;;;;;;;0.80;0.80;;;23.20;95.80;;;;;;4190650;28;20111;-58
2023/09/06 08:39:06;;;;;;;0.80;0.80;;;23.30;95.50;;;;;;4191088;28;20357;-58
2023/09/06 08:41:27;;;;;;;1.60;0.80;;;23.50;96.20;;;;;;4191095;28;20036;-58
2023/09/06 08:43:48;;;;;;;1.80;0.80;;;23.60;94.60;;;;;;4191655;28;20080;-58
2023/09/06 08:46:17;;;;;;;0.82;0.80;;;23.70;95.20;;;;;;4192001;28;20051;-58
2023/09/06 08:48:37;;;;;;;0.73;0.73;;;23.90;95.10;;;;;;4191726;28;20068;-58
2023/09/06 08:50:58;;;;;;;1.95;0.80;;;23.90;94.50;;;;;;4189654;28;20084;-58
2023/09/06 08:53:19;;;;;;;0.80;0.80;;;23.70;95.40;;;;;;4190468;28;20236;-59
2023/09/06 08:55:42;;;;;;;0.90;0.75;;;23.80;94.40;;;;;;4189931;28;20079;-58
2023/09/06 08:58:03;;;;;;;;;;;23.90;93.20;;;;;;4192503;28;20062;-58
2023/09/06 09:00:23;;;;;;;1.55;0.80;;;24.10;93.70;;;;;;4191495;28;19923;-58
2023/09/06 09:02:44;;;;;;;1.13;0.70;;;23.90;93.90;;;;;;4190856;28;20247;-58
2023/09/06 09:05:08;;;;;;;1.35;0.80;;;24.30;94.70;;;;;;4190484;28;20370;-58
2023/09/06 09:07:39;;;;;;;0.70;0.70;;;24.50;93.80;;;;;;4191866;28;20048;-58
2023/09/06 09:10:04;;;;;;;1.58;0.80;;;24.40;93.50;;;;;;4192001;28;20059;-58
2023/09/06 09:12:29;;;;;;;0.80;0.80;;;24.60;93.40;;;;;;4192284;28;20074;-58
2023/09/06 09:14:48;;;;;;;0.77;0.77;;;24.60;93.00;;;;;;4190942;28;20043;-58
2023/09/06 09:17:08;;;;;;;1.73;0.80;;;25.00;94.00;;;;;;4190461;28;20036;-58
2023/09/06 09:19:28;;;;;;;1.90;0.80;;;24.90;92.70;;;;;;4189201;28;20079;-58
2023/09/06 09:21:50;;;;;;;0.80;0.80;;;24.50;91.80;;;;;;4191363;28;20075;-58
2023/09/06 09:24:10;;;;;;;0.80;0.80;;;24.40;93.20;;;;;;4192720;28;20147;-58
2023/09/06 09:26:32;;;;;;;1.55;0.70;;;24.50;93.30;;;;;;4189912;28;20228;-58
2023/09/06 09:28:54;;;;;;;1.60;0.80;;;24.70;92.70;;;;;;4191087;28;20059;-58
2023/09/06 09:31:16;;;;;;;1.15;1.05;;;24.80;93.30;;;;;;4190838;28;20048;-58
2023/09/06 09:33:36;;;;;;;0.70;0.70;;;25.20;92.10;;;;;;4189828;28;20040;-58
2023/09/06 09:35:56;;;;;;;0.70;0.70;;;25.10;92.30;;;;;;4191792;28;20055;-58
2023/09/06 09:38:17;;;;;;;0.70;0.70;;;25.30;91.00;;;;;;4190665;28;20079;-58
2023/09/06 09:40:37;;;;;;;0.70;0.70;;;25.30;91.50;;;;;;4191238;28;20224;-58
2023/09/06 09:43:12;;;;;;;0.70;0.70;;;25.50;91.10;;;;;;4190445;28;20055;-58
2023/09/06 09:45:43;;;;;;;5.57;0.80;;;25.70;90.90;;;;;;4189589;28;20043;-59
2023/09/06 09:48:03;;;;;;;1.77;1.48;;;25.50;91.30;;;;;;4193824;28;20132;-58
2023/09/06 09:50:26;;;;;;;0.70;0.70;;;25.50;91.90;;;;;;4189548;28;20048;-58
2023/09/06 09:52:46;;;;;;;0.65;0.65;;;25.60;90.80;;;;;;4179909;28;20079;-59
2023/09/06 09:55:09;;;;;;;2.30;0.70;;;25.20;91.10;;;;;;4189782;28;20063;-58
2023/09/06 09:57:31;;;;;;;1.15;0.70;;;25.60;91.50;;;;;;4190038;28;20047;-58
2023/09/06 09:59:52;;;;;;;1.10;0.70;;;25.70;89.30;;;;;;4189709;28;20281;-58
2023/09/06 10:02:15;;;;;;;0.70;0.70;;;25.70;90.30;;;;;;4188148;28;20040;-58
2023/09/06 10:04:46;;;;;;;3.40;0.80;;;26.00;91.30;;;;;;4202700;28;20223;-58
2023/09/06 10:07:08;;;;;;;3.92;0.70;;;26.00;90.60;;;;;;4191211;28;20044;-58
2023/09/06 10:09:29;;;;;;;0.70;0.70;;;26.00;88.70;;;;;;4189944;28;20044;-58
2023/09/06 10:11:51;;;;;;;0.60;0.60;;;26.20;90.00;;;;;;4189645;28;20075;-58
2023/09/06 10:14:14;;;;;;;0.73;0.73;;;26.10;90.40;;;;;;4189773;28;20048;-58
2023/09/06 10:16:34;;;;;;;1.02;0.95;;;26.00;91.10;;;;;;4191959;28;20099;-58
2023/09/06 10:18:55;;;;;;;1.13;0.93;;;25.90;87.00;;;;;;4194322;28;20098;-58
2023/09/06 10:21:17;;;;;;;2.53;0.65;;;26.10;88.00;;;;;;4193274;28;20075;-58
2023/09/06 10:23:46;;;;;;;0.73;0.70;;;26.10;89.50;;;;;;4194488;28;20056;-58
2023/09/06 10:26:06;;;;;;;1.15;0.70;;;26.30;89.10;;;;;;4193611;28;20075;-58
2023/09/06 10:28:32;;;;;;;0.70;0.70;;;26.50;89.40;;;;;;4191719;28;20083;-59
2023/09/06 10:31:02;;;;;;;0.70;0.70;;;26.20;90.00;;;;;;4204903;28;20044;-59
2023/09/06 10:33:32;;;;;;;2.38;0.60;;;26.30;89.30;;;;;;4191793;28;20048;-59
2023/09/06 10:35:57;;;;;;;0.70;0.70;;;26.40;88.20;;;;;;4191934;28;20071;-59
2023/09/06 10:38:18;;;;;;;0.70;0.70;;;26.50;86.40;;;;;;4193444;28;20055;-58
2023/09/06 10:40:50;;;;;;;0.70;0.70;;;26.70;86.00;;;;;;4194237;28;20048;-58
2023/09/06 10:43:10;;;;;;;1.05;0.80;;;26.80;89.10;;;;;;4195067;28;20102;-58
2023/09/06 10:45:30;;;;;;;0.70;0.70;;;26.80;86.90;;;;;;4192326;28;20235;-58
2023/09/06 10:47:51;;;;;;;1.40;0.70;;;26.80;87.40;;;;;;4195589;28;20105;-58
2023/09/06 10:50:15;;;;;;;0.70;0.70;;;27.10;88.30;;;;;;4198189;28;20196;-58
2023/09/06 10:52:42;;;;;;;0.70;0.70;;;27.00;85.60;;;;;;4191975;28;20163;-58
2023/09/06 10:55:10;;;;;;;0.70;0.70;;;27.10;86.10;;;;;;4192372;28;20267;-58
2023/09/06 10:57:54;;;;;;;0.70;0.70;;;27.10;88.60;;;;;;4190775;28;20113;-58
2023/09/06 11:00:25;;;;;;;0.60;0.60;;;26.80;85.50;;;;;;4191640;28;20051;-58
2023/09/06 11:03:08;;;;;;;0.60;0.60;;;27.20;85.50;;;;;;4192410;28;20382;-59
2023/09/06 11:05:43;;;;;;;1.13;0.70;;;27.40;86.10;;;;;;4196785;28;20240;-58
2023/09/06 11:08:04;;;;;;;0.60;0.60;;;27.60;86.80;;;;;;4207156;28;20074;-58
2023/09/06 11:10:28;;;;;;;1.38;0.60;;;27.80;85.50;;;;;;4193921;28;20378;-59
2023/09/06 11:12:48;;;;;;;5.63;0.70;;;27.60;83.60;;;;;;4194825;28;20052;-58
2023/09/06 11:15:08;;;;;;;0.65;0.65;;;27.60;87.50;;;;;;4191837;28;20371;-57
2023/09/06 11:17:28;;;;;;;1.58;0.60;;;27.70;84.70;;;;;;4194731;28;20086;-58
2023/09/06 11:19:48;;;;;;;0.70;0.70;;;27.70;83.50;;;;;;4191588;28;20047;-57
2023/09/06 11:22:10;;;;;;;0.68;0.68;;;27.60;83.60;;;;;;4191440;28;20367;-58
2023/09/06 11:24:35;;;;;;;1.52;0.60;;;27.60;83.10;;;;;;4191667;28;20048;-58
2023/09/06 11:26:56;;;;;;;0.60;0.60;;;27.70;82.30;;;;;;4191012;28;20040;-58
2023/09/06 11:29:16;;;;;;;0.60;0.60;;;27.50;80.40;;;;;;4190460;28;20129;-58
2023/09/06 11:31:37;;;;;;;0.70;0.70;;;27.90;84.30;;;;;;4192354;28;20051;-58
2023/09/06 11:34:09;;;;;;;2.42;0.70;;;28.00;83.30;;;;;;4192374;28;20039;-59
2023/09/06 11:36:32;;;;;;;0.65;0.65;;;27.80;81.70;;;;;;4190811;28;20048;-58
2023/09/06 11:38:53;;;;;;;4.53;0.70;;;27.80;82.80;;;;;;4192046;28;20048;-59
2023/09/06 11:41:13;;;;;;;0.60;0.60;;;27.80;80.00;;;;;;4192380;28;20118;-58
2023/09/06 11:43:35;;;;;;;0.60;0.60;;;28.00;81.60;;;;;;4193114;28;20044;-59
2023/09/06 11:45:56;;;;;;;0.60;0.60;;;28.00;82.80;;;;;;4193101;28;20072;-59
2023/09/06 11:48:24;;;;;;;1.52;0.60;;;28.00;80.40;;;;;;4192036;28;20047;-59
2023/09/06 11:50:47;;;;;;;0.90;0.60;;;28.20;82.10;;;;;;4191471;28;20063;-59
2023/09/06 11:53:09;;;;;;;0.60;0.60;;;28.00;80.30;;;;;;4190607;28;20095;-58
2023/09/06 11:55:33;;;;;;;1.48;0.60;;;27.80;81.50;;;;;;4191756;28;20048;-59
2023/09/06 11:57:56;;;;;;;0.68;0.68;;;28.10;81.30;;;;;;4189467;28;20098;-59
2023/09/06 12:00:27;;;;;;;0.70;0.70;;;28.20;80.20;;;;;;4194165;28;20059;-59
2023/09/06 12:02:47;;;;;;;0.60;0.60;;;28.50;80.00;;;;;;4193306;28;20052;-59
2023/09/06 12:05:11;;;;;;;0.77;0.77;;;28.60;79.80;;;;;;4191594;28;20259;-59
2023/09/06 12:07:31;;;;;;;0.70;0.70;;;28.10;82.90;;;;;;4194724;28;20252;-59
2023/09/06 12:09:54;;;;;;;0.70;0.60;;;28.30;80.60;;;;;;4191715;28;20044;-59
2023/09/06 12:12:17;;;;;;;1.42;0.70;;;28.00;79.20;;;;;;4192677;28;20055;-59
2023/09/06 12:14:36;;;;;;;0.70;0.70;;;27.50;79.50;;;;;;4192218;28;20382;-59
2023/09/06 12:16:57;;;;;;;0.65;0.65;;;27.20;79.50;;;;;;4191062;28;20039;-59
2023/09/06 12:19:17;;;;;;;2.78;0.60;;;27.60;81.30;;;;;;4191700;28;20078;-59